sensor_id;sensor_type;location;lat;lon;timestamp;P1;durP1;ratioP1;P2;durP2;ratioP2
65053;SDS011;51639;47.828;35.038;2023-11-21T00:14:12;12.30;;;6.87;;
65053;SDS011;51639;47.828;35.038;2023-11-21T00:29:16;14.83;;;8.17;;
65053;SDS011;51639;47.828;35.038;2023-11-21T00:44:19;18.73;;;9.37;;
65053;SDS011;51639;47.828;35.038;2023-11-21T00:59:23;6.47;;;4.60;;
65053;SDS011;51639;47.828;35.038;2023-11-21T01:14:26;12.80;;;6.10;;
65053;SDS011;51639;47.828;35.038;2023-11-21T01:29:28;10.57;;;6.40;;
65053;SDS011;51639;47.828;35.038;2023-11-21T01:44:30;8.40;;;4.83;;
65053;SDS011;51639;47.828;35.038;2023-11-21T01:59:36;7.27;;;5.07;;
65053;SDS011;51639;47.828;35.038;2023-11-21T02:14:39;12.23;;;7.20;;
65053;SDS011;51639;47.828;35.038;2023-11-21T02:29:41;10.33;;;5.73;;
65053;SDS011;51639;47.828;35.038;2023-11-21T02:44:43;5.50;;;4.13;;
65053;SDS011;51639;47.828;35.038;2023-11-21T02:59:46;10.00;;;5.83;;
65053;SDS011;51639;47.828;35.038;2023-11-21T03:14:48;12.97;;;7.53;;
65053;SDS011;51639;47.828;35.038;2023-11-21T03:29:50;7.33;;;5.17;;
65053;SDS011;51639;47.828;35.038;2023-11-21T03:44:54;6.70;;;4.50;;
65053;SDS011;51639;47.828;35.038;2023-11-21T03:59:57;6.23;;;3.40;;
65053;SDS011;51639;47.828;35.038;2023-11-21T04:14:59;5.43;;;3.90;;
65053;SDS011;51639;47.828;35.038;2023-11-21T04:30:01;5.83;;;3.93;;
65053;SDS011;51639;47.828;35.038;2023-11-21T04:45:04;6.13;;;4.63;;
65053;SDS011;51639;47.828;35.038;2023-11-21T05:00:11;7.33;;;4.00;;
65053;SDS011;51639;47.828;35.038;2023-11-21T05:15:14;12.63;;;4.33;;
65053;SDS011;51639;47.828;35.038;2023-11-21T05:30:17;15.53;;;6.27;;
65053;SDS011;51639;47.828;35.038;2023-11-21T05:45:19;12.80;;;7.80;;
65053;SDS011;51639;47.828;35.038;2023-11-21T06:00:22;16.43;;;8.07;;
65053;SDS011;51639;47.828;35.038;2023-11-21T06:15:28;12.73;;;6.67;;
65053;SDS011;51639;47.828;35.038;2023-11-21T06:30:30;14.13;;;8.03;;
65053;SDS011;51639;47.828;35.038;2023-11-21T06:45:33;17.13;;;8.33;;
65053;SDS011;51639;47.828;35.038;2023-11-21T07:00:35;17.50;;;7.90;;
65053;SDS011;51639;47.828;35.038;2023-11-21T07:15:38;14.70;;;7.80;;
65053;SDS011;51639;47.828;35.038;2023-11-21T07:30:39;15.60;;;8.13;;
65053;SDS011;51639;47.828;35.038;2023-11-21T07:45:41;18.40;;;8.60;;
65053;SDS011;51639;47.828;35.038;2023-11-21T08:00:47;12.67;;;7.20;;
65053;SDS011;51639;47.828;35.038;2023-11-21T08:15:50;11.03;;;6.40;;
65053;SDS011;51639;47.828;35.038;2023-11-21T08:30:55;10.93;;;6.40;;
65053;SDS011;51639;47.828;35.038;2023-11-21T08:45:57;12.93;;;6.07;;
65053;SDS011;51639;47.828;35.038;2023-11-21T09:00:59;13.00;;;6.70;;
65053;SDS011;51639;47.828;35.038;2023-11-21T09:16:02;11.53;;;6.40;;
65053;SDS011;51639;47.828;35.038;2023-11-21T09:31:04;13.10;;;7.43;;
65053;SDS011;51639;47.828;35.038;2023-11-21T09:46:06;14.87;;;7.80;;
65053;SDS011;51639;47.828;35.038;2023-11-21T10:01:12;8.53;;;5.90;;
65053;SDS011;51639;47.828;35.038;2023-11-21T10:16:16;9.43;;;5.70;;
65053;SDS011;51639;47.828;35.038;2023-11-21T11:20:15;11.37;;;6.07;;
65053;SDS011;51639;47.828;35.038;2023-11-21T12:06:18;14.57;;;7.47;;
65053;SDS011;51639;47.828;35.038;2023-11-21T12:21:25;14.70;;;6.70;;
65053;SDS011;51639;47.828;35.038;2023-11-21T12:36:30;17.87;;;9.03;;
65053;SDS011;51639;47.828;35.038;2023-11-21T12:51:32;14.43;;;7.07;;
65053;SDS011;51639;47.828;35.038;2023-11-21T13:06:35;14.00;;;6.17;;
65053;SDS011;51639;47.828;35.038;2023-11-21T13:21:42;18.27;;;6.57;;
65053;SDS011;51639;47.828;35.038;2023-11-21T13:36:45;14.17;;;6.97;;
65053;SDS011;51639;47.828;35.038;2023-11-21T13:51:47;24.20;;;7.70;;
65053;SDS011;51639;47.828;35.038;2023-11-21T14:06:50;13.33;;;6.57;;
65053;SDS011;51639;47.828;35.038;2023-11-21T14:21:54;17.90;;;8.77;;
65053;SDS011;51639;47.828;35.038;2023-11-21T14:36:56;19.43;;;9.83;;
65053;SDS011;51639;47.828;35.038;2023-11-21T14:51:58;22.60;;;10.93;;
65053;SDS011;51639;47.828;35.038;2023-11-21T15:07:22;24.27;;;11.07;;
65053;SDS011;51639;47.828;35.038;2023-11-21T15:22:28;42.70;;;17.10;;
65053;SDS011;51639;47.828;35.038;2023-11-21T15:37:30;35.90;;;16.13;;
65053;SDS011;51639;47.828;35.038;2023-11-21T15:52:32;47.17;;;17.53;;
65053;SDS011;51639;47.828;35.038;2023-11-21T16:07:35;31.17;;;15.03;;
65053;SDS011;51639;47.828;35.038;2023-11-21T16:22:38;26.30;;;12.37;;
65053;SDS011;51639;47.828;35.038;2023-11-21T16:37:40;23.77;;;11.17;;
65053;SDS011;51639;47.828;35.038;2023-11-21T16:52:48;23.50;;;11.40;;
65053;SDS011;51639;47.828;35.038;2023-11-21T17:07:53;26.30;;;12.93;;
65053;SDS011;51639;47.828;35.038;2023-11-21T17:22:56;33.00;;;11.00;;
65053;SDS011;51639;47.828;35.038;2023-11-21T17:38:08;23.27;;;11.67;;
65053;SDS011;51639;47.828;35.038;2023-11-21T17:53:13;23.07;;;10.63;;
65053;SDS011;51639;47.828;35.038;2023-11-21T18:08:15;25.50;;;13.83;;
65053;SDS011;51639;47.828;35.038;2023-11-21T18:23:17;21.47;;;11.10;;
65053;SDS011;51639;47.828;35.038;2023-11-21T18:38:19;23.70;;;12.77;;
65053;SDS011;51639;47.828;35.038;2023-11-21T18:53:21;27.47;;;13.80;;
65053;SDS011;51639;47.828;35.038;2023-11-21T19:08:30;26.40;;;12.73;;
65053;SDS011;51639;47.828;35.038;2023-11-21T19:23:32;30.43;;;12.73;;
65053;SDS011;51639;47.828;35.038;2023-11-21T19:38:34;24.47;;;12.50;;
65053;SDS011;51639;47.828;35.038;2023-11-21T19:53:37;26.53;;;14.00;;
65053;SDS011;51639;47.828;35.038;2023-11-21T20:08:40;26.77;;;14.03;;
65053;SDS011;51639;47.828;35.038;2023-11-21T20:23:42;37.83;;;17.30;;
65053;SDS011;51639;47.828;35.038;2023-11-21T20:38:45;33.87;;;16.77;;
65053;SDS011;51639;47.828;35.038;2023-11-21T20:53:47;34.27;;;16.30;;
65053;SDS011;51639;47.828;35.038;2023-11-21T21:08:49;21.80;;;12.37;;
65053;SDS011;51639;47.828;35.038;2023-11-21T21:23:52;22.07;;;9.70;;
65053;SDS011;51639;47.828;35.038;2023-11-21T21:38:57;17.70;;;9.30;;
65053;SDS011;51639;47.828;35.038;2023-11-21T21:53:59;20.07;;;9.90;;
65053;SDS011;51639;47.828;35.038;2023-11-21T22:09:01;12.17;;;7.60;;
65053;SDS011;51639;47.828;35.038;2023-11-21T22:24:04;15.50;;;7.47;;
65053;SDS011;51639;47.828;35.038;2023-11-21T22:39:08;12.37;;;6.90;;
65053;SDS011;51639;47.828;35.038;2023-11-21T22:54:11;14.47;;;7.63;;
65053;SDS011;51639;47.828;35.038;2023-11-21T23:09:14;12.43;;;7.13;;
65053;SDS011;51639;47.828;35.038;2023-11-21T23:24:19;10.27;;;6.63;;
65053;SDS011;51639;47.828;35.038;2023-11-21T23:39:22;10.47;;;6.57;;
65053;SDS011;51639;47.828;35.038;2023-11-21T23:54:24;13.73;;;7.20;;
